sensor_id;sensor_type;location;lat;lon;timestamp;temperature;humidity
8593;DHT22;4334;49.982;8.398;2024-03-02T00:00:07;4.10;99.90
8593;DHT22;4334;49.982;8.398;2024-03-02T00:02:40;4.10;99.90
8593;DHT22;4334;49.982;8.398;2024-03-02T00:05:11;4.30;99.90
8593;DHT22;4334;49.982;8.398;2024-03-02T00:07:38;4.30;99.90
8593;DHT22;4334;49.982;8.398;2024-03-02T00:10:09;4.30;99.90
8593;DHT22;4334;49.982;8.398;2024-03-02T00:12:37;4.50;99.90
8593;DHT22;4334;49.982;8.398;2024-03-02T00:15:05;4.50;99.90
8593;DHT22;4334;49.982;8.398;2024-03-02T00:17:33;4.50;99.90
8593;DHT22;4334;49.982;8.398;2024-03-02T00:20:00;4.60;99.90
8593;DHT22;4334;49.982;8.398;2024-03-02T00:22:29;4.60;99.90
8593;DHT22;4334;49.982;8.398;2024-03-02T00:24:56;4.60;99.90
8593;DHT22;4334;49.982;8.398;2024-03-02T00:27:23;4.50;99.90
8593;DHT22;4334;49.982;8.398;2024-03-02T00:29:50;4.50;99.90
8593;DHT22;4334;49.982;8.398;2024-03-02T00:32:17;4.40;99.90
8593;DHT22;4334;49.982;8.398;2024-03-02T00:34:44;4.30;99.90
8593;DHT22;4334;49.982;8.398;2024-03-02T00:37:11;4.20;99.90
8593;DHT22;4334;49.982;8.398;2024-03-02T00:39:39;4.00;99.90
8593;DHT22;4334;49.982;8.398;2024-03-02T00:42:06;4.00;99.90
8593;DHT22;4334;49.982;8.398;2024-03-02T00:44:33;3.90;99.90
8593;DHT22;4334;49.982;8.398;2024-03-02T00:47:01;3.90;99.90
8593;DHT22;4334;49.982;8.398;2024-03-02T00:49:28;3.80;99.90
8593;DHT22;4334;49.982;8.398;2024-03-02T00:51:55;3.70;99.90
8593;DHT22;4334;49.982;8.398;2024-03-02T00:54:24;3.60;99.90
8593;DHT22;4334;49.982;8.398;2024-03-02T00:56:53;3.70;99.90
8593;DHT22;4334;49.982;8.398;2024-03-02T00:59:21;3.90;99.90
8593;DHT22;4334;49.982;8.398;2024-03-02T01:01:47;4.10;99.90
8593;DHT22;4334;49.982;8.398;2024-03-02T01:04:14;4.20;99.90
8593;DHT22;4334;49.982;8.398;2024-03-02T01:06:42;4.30;99.90
8593;DHT22;4334;49.982;8.398;2024-03-02T01:09:08;4.20;99.90
8593;DHT22;4334;49.982;8.398;2024-03-02T01:11:35;4.10;99.90
8593;DHT22;4334;49.982;8.398;2024-03-02T01:14:03;4.20;99.90
8593;DHT22;4334;49.982;8.398;2024-03-02T01:16:30;4.20;99.90
8593;DHT22;4334;49.982;8.398;2024-03-02T01:18:57;4.30;99.90
8593;DHT22;4334;49.982;8.398;2024-03-02T01:21:24;4.40;99.90
8593;DHT22;4334;49.982;8.398;2024-03-02T01:23:50;4.40;99.90
8593;DHT22;4334;49.982;8.398;2024-03-02T01:26:17;4.40;99.90
8593;DHT22;4334;49.982;8.398;2024-03-02T01:28:44;4.40;99.90
8593;DHT22;4334;49.982;8.398;2024-03-02T01:31:12;4.40;99.90
8593;DHT22;4334;49.982;8.398;2024-03-02T01:33:38;4.40;99.90
8593;DHT22;4334;49.982;8.398;2024-03-02T01:36:05;4.30;99.90
8593;DHT22;4334;49.982;8.398;2024-03-02T01:38:33;4.20;99.90
8593;DHT22;4334;49.982;8.398;2024-03-02T01:41:00;4.20;99.90
8593;DHT22;4334;49.982;8.398;2024-03-02T01:43:27;4.20;99.90
8593;DHT22;4334;49.982;8.398;2024-03-02T01:45:54;4.10;99.90
8593;DHT22;4334;49.982;8.398;2024-03-02T01:48:23;4.10;99.90
8593;DHT22;4334;49.982;8.398;2024-03-02T01:50:50;4.10;99.90
8593;DHT22;4334;49.982;8.398;2024-03-02T01:53:17;4.10;99.90
8593;DHT22;4334;49.982;8.398;2024-03-02T01:55:44;4.20;99.90
8593;DHT22;4334;49.982;8.398;2024-03-02T01:58:11;4.10;99.90
8593;DHT22;4334;49.982;8.398;2024-03-02T02:00:37;4.10;99.90
8593;DHT22;4334;49.982;8.398;2024-03-02T02:03:04;4.00;99.90
8593;DHT22;4334;49.982;8.398;2024-03-02T02:05:33;4.00;99.90
8593;DHT22;4334;49.982;8.398;2024-03-02T02:08:01;3.90;99.90
8593;DHT22;4334;49.982;8.398;2024-03-02T02:10:29;4.00;99.90
8593;DHT22;4334;49.982;8.398;2024-03-02T02:12:55;4.00;99.90
8593;DHT22;4334;49.982;8.398;2024-03-02T02:15:26;4.00;99.90
8593;DHT22;4334;49.982;8.398;2024-03-02T02:17:53;4.00;99.90
8593;DHT22;4334;49.982;8.398;2024-03-02T02:20:20;3.90;99.90
8593;DHT22;4334;49.982;8.398;2024-03-02T02:22:56;3.90;99.90
8593;DHT22;4334;49.982;8.398;2024-03-02T02:25:23;3.90;99.90
8593;DHT22;4334;49.982;8.398;2024-03-02T02:27:49;3.90;99.90
8593;DHT22;4334;49.982;8.398;2024-03-02T02:30:19;3.90;99.90
8593;DHT22;4334;49.982;8.398;2024-03-02T02:32:46;3.80;99.90
8593;DHT22;4334;49.982;8.398;2024-03-02T02:35:13;3.80;99.90
8593;DHT22;4334;49.982;8.398;2024-03-02T02:37:40;4.10;99.90
8593;DHT22;4334;49.982;8.398;2024-03-02T02:40:09;4.20;99.90
8593;DHT22;4334;49.982;8.398;2024-03-02T02:42:36;4.20;99.90
8593;DHT22;4334;49.982;8.398;2024-03-02T02:45:03;4.20;99.90
8593;DHT22;4334;49.982;8.398;2024-03-02T02:47:30;4.10;99.90
8593;DHT22;4334;49.982;8.398;2024-03-02T02:49:59;4.10;99.90
8593;DHT22;4334;49.982;8.398;2024-03-02T02:52:31;4.00;99.90
8593;DHT22;4334;49.982;8.398;2024-03-02T02:54:58;4.00;99.90
8593;DHT22;4334;49.982;8.398;2024-03-02T02:57:26;3.90;99.90
8593;DHT22;4334;49.982;8.398;2024-03-02T02:59:53;4.00;99.90
8593;DHT22;4334;49.982;8.398;2024-03-02T03:02:20;3.80;99.90
8593;DHT22;4334;49.982;8.398;2024-03-02T03:04:46;3.80;99.90
8593;DHT22;4334;49.982;8.398;2024-03-02T03:07:13;3.80;99.90
8593;DHT22;4334;49.982;8.398;2024-03-02T03:09:40;3.90;99.90
8593;DHT22;4334;49.982;8.398;2024-03-02T03:12:07;3.90;99.90
8593;DHT22;4334;49.982;8.398;2024-03-02T03:14:35;3.90;99.90
8593;DHT22;4334;49.982;8.398;2024-03-02T03:17:02;3.90;99.90
8593;DHT22;4334;49.982;8.398;2024-03-02T03:19:29;6.20;99.90
8593;DHT22;4334;49.982;8.398;2024-03-02T03:21:56;3.90;99.90
8593;DHT22;4334;49.982;8.398;2024-03-02T03:24:23;3.80;99.90
8593;DHT22;4334;49.982;8.398;2024-03-02T03:26:49;3.90;99.90
8593;DHT22;4334;49.982;8.398;2024-03-02T03:29:16;3.90;99.90
8593;DHT22;4334;49.982;8.398;2024-03-02T03:31:44;3.90;99.90
8593;DHT22;4334;49.982;8.398;2024-03-02T03:34:10;3.90;99.90
8593;DHT22;4334;49.982;8.398;2024-03-02T03:36:41;3.80;99.90
8593;DHT22;4334;49.982;8.398;2024-03-02T03:39:07;3.80;99.90
8593;DHT22;4334;49.982;8.398;2024-03-02T03:41:34;3.80;99.90
8593;DHT22;4334;49.982;8.398;2024-03-02T03:44:01;3.90;99.90
8593;DHT22;4334;49.982;8.398;2024-03-02T03:46:29;4.00;99.90
8593;DHT22;4334;49.982;8.398;2024-03-02T03:48:57;3.90;99.90
8593;DHT22;4334;49.982;8.398;2024-03-02T03:51:23;3.90;99.90
8593;DHT22;4334;49.982;8.398;2024-03-02T03:53:50;3.90;99.90
8593;DHT22;4334;49.982;8.398;2024-03-02T03:56:17;3.90;99.90
8593;DHT22;4334;49.982;8.398;2024-03-02T03:58:43;3.90;99.90
8593;DHT22;4334;49.982;8.398;2024-03-02T04:01:10;4.00;99.90
8593;DHT22;4334;49.982;8.398;2024-03-02T04:03:37;4.00;99.90
8593;DHT22;4334;49.982;8.398;2024-03-02T04:06:06;4.00;99.90
8593;DHT22;4334;49.982;8.398;2024-03-02T04:08:32;4.00;99.90
8593;DHT22;4334;49.982;8.398;2024-03-02T04:10:59;4.00;99.90
8593;DHT22;4334;49.982;8.398;2024-03-02T04:13:26;3.90;99.90
8593;DHT22;4334;49.982;8.398;2024-03-02T04:15:53;3.90;99.90
8593;DHT22;4334;49.982;8.398;2024-03-02T04:18:20;3.90;99.90
8593;DHT22;4334;49.982;8.398;2024-03-02T04:20:46;3.90;99.90
8593;DHT22;4334;49.982;8.398;2024-03-02T04:23:14;4.00;99.90
8593;DHT22;4334;49.982;8.398;2024-03-02T04:25:41;4.10;99.90
8593;DHT22;4334;49.982;8.398;2024-03-02T04:28:08;4.10;99.90
8593;DHT22;4334;49.982;8.398;2024-03-02T04:30:35;4.10;99.90
8593;DHT22;4334;49.982;8.398;2024-03-02T04:33:02;4.00;99.90
8593;DHT22;4334;49.982;8.398;2024-03-02T04:35:29;4.00;99.90
8593;DHT22;4334;49.982;8.398;2024-03-02T04:37:55;4.00;99.90
8593;DHT22;4334;49.982;8.398;2024-03-02T04:40:23;4.00;99.90
8593;DHT22;4334;49.982;8.398;2024-03-02T04:42:50;3.90;99.90
8593;DHT22;4334;49.982;8.398;2024-03-02T04:45:17;7.00;99.90
8593;DHT22;4334;49.982;8.398;2024-03-02T04:47:43;3.90;99.90
8593;DHT22;4334;49.982;8.398;2024-03-02T04:50:10;3.70;99.90
8593;DHT22;4334;49.982;8.398;2024-03-02T04:52:37;3.70;99.90
8593;DHT22;4334;49.982;8.398;2024-03-02T04:55:04;3.60;99.90
8593;DHT22;4334;49.982;8.398;2024-03-02T04:57:56;3.60;99.90
8593;DHT22;4334;49.982;8.398;2024-03-02T05:00:23;3.40;99.90
8593;DHT22;4334;49.982;8.398;2024-03-02T05:02:49;3.30;99.90
8593;DHT22;4334;49.982;8.398;2024-03-02T05:05:16;7.30;99.90
8593;DHT22;4334;49.982;8.398;2024-03-02T05:07:43;3.00;99.90
8593;DHT22;4334;49.982;8.398;2024-03-02T05:10:10;2.90;99.90
8593;DHT22;4334;49.982;8.398;2024-03-02T05:12:37;3.00;99.90
8593;DHT22;4334;49.982;8.398;2024-03-02T05:15:23;3.10;99.90
8593;DHT22;4334;49.982;8.398;2024-03-02T05:17:50;3.00;99.90
8593;DHT22;4334;49.982;8.398;2024-03-02T05:20:17;7.10;99.90
8593;DHT22;4334;49.982;8.398;2024-03-02T05:22:43;3.10;99.90
8593;DHT22;4334;49.982;8.398;2024-03-02T05:25:10;3.30;99.90
8593;DHT22;4334;49.982;8.398;2024-03-02T05:27:37;6.20;99.90
8593;DHT22;4334;49.982;8.398;2024-03-02T05:30:04;3.60;99.90
8593;DHT22;4334;49.982;8.398;2024-03-02T05:32:34;3.60;99.90
8593;DHT22;4334;49.982;8.398;2024-03-02T05:35:00;3.70;99.90
8593;DHT22;4334;49.982;8.398;2024-03-02T05:37:28;3.80;99.90
8593;DHT22;4334;49.982;8.398;2024-03-02T05:39:55;3.90;99.90
8593;DHT22;4334;49.982;8.398;2024-03-02T05:42:22;4.00;99.90
8593;DHT22;4334;49.982;8.398;2024-03-02T05:44:48;4.00;99.90
8593;DHT22;4334;49.982;8.398;2024-03-02T05:47:15;3.90;99.90
8593;DHT22;4334;49.982;8.398;2024-03-02T05:49:43;4.00;99.90
8593;DHT22;4334;49.982;8.398;2024-03-02T05:52:10;4.10;99.90
8593;DHT22;4334;49.982;8.398;2024-03-02T05:54:37;4.20;99.90
8593;DHT22;4334;49.982;8.398;2024-03-02T05:57:04;4.20;99.90
8593;DHT22;4334;49.982;8.398;2024-03-02T05:59:52;4.20;99.90
8593;DHT22;4334;49.982;8.398;2024-03-02T06:02:19;4.20;99.90
8593;DHT22;4334;49.982;8.398;2024-03-02T06:04:47;4.20;99.90
8593;DHT22;4334;49.982;8.398;2024-03-02T06:07:13;4.20;99.90
8593;DHT22;4334;49.982;8.398;2024-03-02T06:09:41;4.30;99.90
8593;DHT22;4334;49.982;8.398;2024-03-02T06:12:08;4.30;99.90
8593;DHT22;4334;49.982;8.398;2024-03-02T06:14:34;4.40;99.90
8593;DHT22;4334;49.982;8.398;2024-03-02T06:17:01;4.40;99.90
8593;DHT22;4334;49.982;8.398;2024-03-02T06:19:28;6.50;99.90
8593;DHT22;4334;49.982;8.398;2024-03-02T06:21:56;4.50;99.90
8593;DHT22;4334;49.982;8.398;2024-03-02T06:24:23;4.60;99.90
8593;DHT22;4334;49.982;8.398;2024-03-02T06:26:51;4.60;99.90
8593;DHT22;4334;49.982;8.398;2024-03-02T06:29:18;4.70;99.90
8593;DHT22;4334;49.982;8.398;2024-03-02T06:31:45;4.80;99.90
8593;DHT22;4334;49.982;8.398;2024-03-02T06:34:11;4.80;99.90
8593;DHT22;4334;49.982;8.398;2024-03-02T06:36:38;4.80;99.90
8593;DHT22;4334;49.982;8.398;2024-03-02T06:39:07;4.90;99.90
8593;DHT22;4334;49.982;8.398;2024-03-02T06:41:34;4.90;99.90
8593;DHT22;4334;49.982;8.398;2024-03-02T06:44:02;4.90;99.90
8593;DHT22;4334;49.982;8.398;2024-03-02T06:46:29;4.90;99.90
8593;DHT22;4334;49.982;8.398;2024-03-02T06:48:56;4.80;99.90
8593;DHT22;4334;49.982;8.398;2024-03-02T06:51:22;4.70;99.90
8593;DHT22;4334;49.982;8.398;2024-03-02T06:53:49;4.70;99.90
8593;DHT22;4334;49.982;8.398;2024-03-02T06:56:17;4.70;99.90
8593;DHT22;4334;49.982;8.398;2024-03-02T06:58:44;4.70;99.90
8593;DHT22;4334;49.982;8.398;2024-03-02T07:01:10;4.70;99.90
8593;DHT22;4334;49.982;8.398;2024-03-02T07:03:37;4.70;99.90
8593;DHT22;4334;49.982;8.398;2024-03-02T07:06:04;4.70;99.90
8593;DHT22;4334;49.982;8.398;2024-03-02T07:08:31;4.70;99.90
8593;DHT22;4334;49.982;8.398;2024-03-02T07:10:58;4.80;99.90
8593;DHT22;4334;49.982;8.398;2024-03-02T07:13:26;4.90;99.90
8593;DHT22;4334;49.982;8.398;2024-03-02T07:15:52;5.10;99.90
8593;DHT22;4334;49.982;8.398;2024-03-02T07:18:48;5.20;99.90
8593;DHT22;4334;49.982;8.398;2024-03-02T07:21:17;5.40;99.90
8593;DHT22;4334;49.982;8.398;2024-03-02T07:23:44;5.50;99.90
8593;DHT22;4334;49.982;8.398;2024-03-02T07:26:10;5.30;99.90
8593;DHT22;4334;49.982;8.398;2024-03-02T07:28:38;5.40;99.90
8593;DHT22;4334;49.982;8.398;2024-03-02T07:31:05;5.40;99.90
8593;DHT22;4334;49.982;8.398;2024-03-02T07:33:32;5.70;99.90
8593;DHT22;4334;49.982;8.398;2024-03-02T07:36:00;6.10;99.90
8593;DHT22;4334;49.982;8.398;2024-03-02T07:38:27;8.20;99.90
8593;DHT22;4334;49.982;8.398;2024-03-02T07:40:54;7.60;99.90
8593;DHT22;4334;49.982;8.398;2024-03-02T07:43:21;8.00;99.90
8593;DHT22;4334;49.982;8.398;2024-03-02T07:45:49;8.10;99.90
8593;DHT22;4334;49.982;8.398;2024-03-02T07:48:16;7.60;99.90
8593;DHT22;4334;49.982;8.398;2024-03-02T07:50:43;7.50;99.90
8593;DHT22;4334;49.982;8.398;2024-03-02T07:53:10;11.40;99.90
8593;DHT22;4334;49.982;8.398;2024-03-02T07:55:36;7.60;99.90
8593;DHT22;4334;49.982;8.398;2024-03-02T07:58:03;7.60;99.90
8593;DHT22;4334;49.982;8.398;2024-03-02T08:00:30;7.40;99.90
8593;DHT22;4334;49.982;8.398;2024-03-02T08:02:58;7.40;99.90
8593;DHT22;4334;49.982;8.398;2024-03-02T08:05:25;7.40;99.90
8593;DHT22;4334;49.982;8.398;2024-03-02T08:07:53;7.30;99.90
8593;DHT22;4334;49.982;8.398;2024-03-02T08:10:20;7.20;99.90
8593;DHT22;4334;49.982;8.398;2024-03-02T08:12:46;7.20;99.90
8593;DHT22;4334;49.982;8.398;2024-03-02T08:15:13;7.30;99.90
8593;DHT22;4334;49.982;8.398;2024-03-02T08:17:40;7.40;99.90
8593;DHT22;4334;49.982;8.398;2024-03-02T08:20:12;7.40;99.90
8593;DHT22;4334;49.982;8.398;2024-03-02T08:22:39;7.70;99.90
8593;DHT22;4334;49.982;8.398;2024-03-02T08:25:07;8.00;99.90
8593;DHT22;4334;49.982;8.398;2024-03-02T08:27:35;7.80;99.90
8593;DHT22;4334;49.982;8.398;2024-03-02T08:30:01;7.90;99.90
8593;DHT22;4334;49.982;8.398;2024-03-02T08:32:31;8.00;99.90
8593;DHT22;4334;49.982;8.398;2024-03-02T08:34:58;8.10;99.90
8593;DHT22;4334;49.982;8.398;2024-03-02T08:37:26;8.00;99.90
8593;DHT22;4334;49.982;8.398;2024-03-02T08:39:53;7.90;99.90
8593;DHT22;4334;49.982;8.398;2024-03-02T08:42:20;8.00;99.90
8593;DHT22;4334;49.982;8.398;2024-03-02T08:44:46;7.90;99.90
8593;DHT22;4334;49.982;8.398;2024-03-02T08:47:13;8.00;99.90
8593;DHT22;4334;49.982;8.398;2024-03-02T08:49:40;8.10;99.90
8593;DHT22;4334;49.982;8.398;2024-03-02T08:52:06;8.20;99.90
8593;DHT22;4334;49.982;8.398;2024-03-02T08:54:35;8.10;99.90
8593;DHT22;4334;49.982;8.398;2024-03-02T08:57:03;8.20;99.90
8593;DHT22;4334;49.982;8.398;2024-03-02T08:59:30;8.20;99.90
8593;DHT22;4334;49.982;8.398;2024-03-02T09:01:57;8.40;99.90
8593;DHT22;4334;49.982;8.398;2024-03-02T09:04:24;8.60;99.90
8593;DHT22;4334;49.982;8.398;2024-03-02T09:06:51;8.70;99.90
8593;DHT22;4334;49.982;8.398;2024-03-02T09:09:17;8.80;99.90
8593;DHT22;4334;49.982;8.398;2024-03-02T09:11:45;9.00;99.90
8593;DHT22;4334;49.982;8.398;2024-03-02T09:14:12;8.90;99.90
8593;DHT22;4334;49.982;8.398;2024-03-02T09:16:40;9.00;99.90
8593;DHT22;4334;49.982;8.398;2024-03-02T09:19:07;9.20;99.90
8593;DHT22;4334;49.982;8.398;2024-03-02T09:21:35;9.40;99.90
8593;DHT22;4334;49.982;8.398;2024-03-02T09:24:01;9.30;99.90
8593;DHT22;4334;49.982;8.398;2024-03-02T09:26:29;9.60;99.90
8593;DHT22;4334;49.982;8.398;2024-03-02T09:28:57;9.50;99.90
8593;DHT22;4334;49.982;8.398;2024-03-02T09:31:23;9.50;99.90
8593;DHT22;4334;49.982;8.398;2024-03-02T09:33:50;9.60;99.90
8593;DHT22;4334;49.982;8.398;2024-03-02T09:36:17;9.80;99.90
8593;DHT22;4334;49.982;8.398;2024-03-02T09:38:44;10.10;99.90
8593;DHT22;4334;49.982;8.398;2024-03-02T09:41:11;10.50;99.90
8593;DHT22;4334;49.982;8.398;2024-03-02T09:43:38;10.60;99.90
8593;DHT22;4334;49.982;8.398;2024-03-02T09:46:06;10.70;99.90
8593;DHT22;4334;49.982;8.398;2024-03-02T09:48:35;10.80;99.90
8593;DHT22;4334;49.982;8.398;2024-03-02T09:51:01;10.90;99.90
8593;DHT22;4334;49.982;8.398;2024-03-02T09:53:32;10.60;99.90
8593;DHT22;4334;49.982;8.398;2024-03-02T09:55:59;10.70;99.90
8593;DHT22;4334;49.982;8.398;2024-03-02T09:58:25;11.10;99.90
8593;DHT22;4334;49.982;8.398;2024-03-02T10:00:52;11.00;99.90
8593;DHT22;4334;49.982;8.398;2024-03-02T10:03:22;10.80;99.90
8593;DHT22;4334;49.982;8.398;2024-03-02T10:05:49;10.80;99.90
8593;DHT22;4334;49.982;8.398;2024-03-02T10:08:17;10.80;99.90
8593;DHT22;4334;49.982;8.398;2024-03-02T10:10:43;11.00;99.90
8593;DHT22;4334;49.982;8.398;2024-03-02T10:13:12;11.20;99.90
8593;DHT22;4334;49.982;8.398;2024-03-02T10:15:40;11.40;99.90
8593;DHT22;4334;49.982;8.398;2024-03-02T10:18:09;11.40;99.90
8593;DHT22;4334;49.982;8.398;2024-03-02T10:20:38;11.20;99.90
8593;DHT22;4334;49.982;8.398;2024-03-02T10:23:11;11.30;99.90
8593;DHT22;4334;49.982;8.398;2024-03-02T10:25:38;11.50;99.90
8593;DHT22;4334;49.982;8.398;2024-03-02T10:28:04;11.30;99.90
8593;DHT22;4334;49.982;8.398;2024-03-02T10:30:32;11.60;99.90
8593;DHT22;4334;49.982;8.398;2024-03-02T10:32:58;11.60;99.90
8593;DHT22;4334;49.982;8.398;2024-03-02T10:35:26;16.10;99.90
8593;DHT22;4334;49.982;8.398;2024-03-02T10:37:54;12.30;99.90
8593;DHT22;4334;49.982;8.398;2024-03-02T10:40:22;12.10;99.90
8593;DHT22;4334;49.982;8.398;2024-03-02T10:42:49;12.00;99.90
8593;DHT22;4334;49.982;8.398;2024-03-02T10:45:17;11.90;99.90
8593;DHT22;4334;49.982;8.398;2024-03-02T10:47:45;12.30;99.90
8593;DHT22;4334;49.982;8.398;2024-03-02T10:50:13;12.40;99.90
8593;DHT22;4334;49.982;8.398;2024-03-02T10:52:39;12.70;99.90
8593;DHT22;4334;49.982;8.398;2024-03-02T10:55:09;12.90;99.90
8593;DHT22;4334;49.982;8.398;2024-03-02T10:57:41;12.90;99.90
8593;DHT22;4334;49.982;8.398;2024-03-02T11:00:12;14.20;99.90
8593;DHT22;4334;49.982;8.398;2024-03-02T11:02:44;12.40;99.90
8593;DHT22;4334;49.982;8.398;2024-03-02T11:05:19;12.30;99.90
8593;DHT22;4334;49.982;8.398;2024-03-02T11:07:47;12.40;99.90
8593;DHT22;4334;49.982;8.398;2024-03-02T11:10:16;15.60;99.90
8593;DHT22;4334;49.982;8.398;2024-03-02T11:12:48;13.10;99.90
8593;DHT22;4334;49.982;8.398;2024-03-02T11:15:19;13.10;99.90
8593;DHT22;4334;49.982;8.398;2024-03-02T11:17:48;13.30;99.90
8593;DHT22;4334;49.982;8.398;2024-03-02T11:20:15;13.20;99.90
8593;DHT22;4334;49.982;8.398;2024-03-02T11:22:44;13.10;99.90
8593;DHT22;4334;49.982;8.398;2024-03-02T11:25:24;13.30;99.90
8593;DHT22;4334;49.982;8.398;2024-03-02T11:28:02;13.50;99.90
8593;DHT22;4334;49.982;8.398;2024-03-02T11:30:51;13.60;99.90
8593;DHT22;4334;49.982;8.398;2024-03-02T11:33:25;13.60;99.90
8593;DHT22;4334;49.982;8.398;2024-03-02T11:35:56;15.10;99.90
8593;DHT22;4334;49.982;8.398;2024-03-02T11:38:28;13.00;99.90
8593;DHT22;4334;49.982;8.398;2024-03-02T11:40:56;13.40;99.90
8593;DHT22;4334;49.982;8.398;2024-03-02T11:43:23;13.60;99.90
8593;DHT22;4334;49.982;8.398;2024-03-02T11:45:57;13.80;99.90
8593;DHT22;4334;49.982;8.398;2024-03-02T11:48:24;14.10;99.90
8593;DHT22;4334;49.982;8.398;2024-03-02T11:50:52;14.10;99.90
8593;DHT22;4334;49.982;8.398;2024-03-02T11:53:20;14.10;99.90
8593;DHT22;4334;49.982;8.398;2024-03-02T11:55:47;15.00;99.90
8593;DHT22;4334;49.982;8.398;2024-03-02T11:58:17;15.40;99.90
8593;DHT22;4334;49.982;8.398;2024-03-02T12:00:46;15.60;99.90
8593;DHT22;4334;49.982;8.398;2024-03-02T12:03:13;15.60;99.90
8593;DHT22;4334;49.982;8.398;2024-03-02T12:05:41;15.40;99.90
8593;DHT22;4334;49.982;8.398;2024-03-02T12:08:08;16.10;99.90
8593;DHT22;4334;49.982;8.398;2024-03-02T12:10:36;18.90;99.90
8593;DHT22;4334;49.982;8.398;2024-03-02T12:13:05;14.60;99.90
8593;DHT22;4334;49.982;8.398;2024-03-02T12:15:35;14.60;99.90
8593;DHT22;4334;49.982;8.398;2024-03-02T12:18:04;15.20;99.90
8593;DHT22;4334;49.982;8.398;2024-03-02T12:20:32;16.10;99.90
8593;DHT22;4334;49.982;8.398;2024-03-02T12:23:00;16.80;99.90
8593;DHT22;4334;49.982;8.398;2024-03-02T12:25:28;18.10;99.90
8593;DHT22;4334;49.982;8.398;2024-03-02T12:27:55;18.50;99.90
8593;DHT22;4334;49.982;8.398;2024-03-02T12:30:23;19.00;98.60
8593;DHT22;4334;49.982;8.398;2024-03-02T12:32:51;18.10;98.60
8593;DHT22;4334;49.982;8.398;2024-03-02T12:35:18;18.90;99.10
8593;DHT22;4334;49.982;8.398;2024-03-02T12:37:45;19.70;97.70
8593;DHT22;4334;49.982;8.398;2024-03-02T12:40:13;19.90;98.20
8593;DHT22;4334;49.982;8.398;2024-03-02T12:42:40;21.50;95.30
8593;DHT22;4334;49.982;8.398;2024-03-02T12:45:08;20.20;92.70
8593;DHT22;4334;49.982;8.398;2024-03-02T12:47:35;21.60;92.50
8593;DHT22;4334;49.982;8.398;2024-03-02T12:50:05;19.40;91.80
8593;DHT22;4334;49.982;8.398;2024-03-02T12:52:32;18.70;92.50
8593;DHT22;4334;49.982;8.398;2024-03-02T12:55:00;17.70;94.10
8593;DHT22;4334;49.982;8.398;2024-03-02T12:57:29;16.80;93.70
8593;DHT22;4334;49.982;8.398;2024-03-02T12:59:58;16.30;95.50
8593;DHT22;4334;49.982;8.398;2024-03-02T13:02:28;16.30;96.30
8593;DHT22;4334;49.982;8.398;2024-03-02T13:04:55;17.00;95.10
8593;DHT22;4334;49.982;8.398;2024-03-02T13:07:23;16.80;95.50
8593;DHT22;4334;49.982;8.398;2024-03-02T13:09:50;16.90;95.40
8593;DHT22;4334;49.982;8.398;2024-03-02T13:12:17;16.80;95.80
8593;DHT22;4334;49.982;8.398;2024-03-02T13:14:44;16.90;96.60
8593;DHT22;4334;49.982;8.398;2024-03-02T13:17:10;17.50;95.40
8593;DHT22;4334;49.982;8.398;2024-03-02T13:19:50;17.70;96.10
8593;DHT22;4334;49.982;8.398;2024-03-02T13:22:16;18.00;94.70
8593;DHT22;4334;49.982;8.398;2024-03-02T13:24:45;17.70;94.70
8593;DHT22;4334;49.982;8.398;2024-03-02T13:27:11;19.90;95.80
8593;DHT22;4334;49.982;8.398;2024-03-02T13:29:38;22.70;95.90
8593;DHT22;4334;49.982;8.398;2024-03-02T13:32:05;17.90;94.80
8593;DHT22;4334;49.982;8.398;2024-03-02T13:34:32;18.20;94.60
8593;DHT22;4334;49.982;8.398;2024-03-02T13:36:58;18.10;94.80
8593;DHT22;4334;49.982;8.398;2024-03-02T13:39:26;18.70;93.40
8593;DHT22;4334;49.982;8.398;2024-03-02T13:41:57;18.90;92.60
8593;DHT22;4334;49.982;8.398;2024-03-02T13:44:29;18.60;92.70
8593;DHT22;4334;49.982;8.398;2024-03-02T13:46:56;17.60;93.80
8593;DHT22;4334;49.982;8.398;2024-03-02T13:49:23;17.80;94.10
8593;DHT22;4334;49.982;8.398;2024-03-02T13:51:54;18.60;93.30
8593;DHT22;4334;49.982;8.398;2024-03-02T13:54:22;19.50;91.50
8593;DHT22;4334;49.982;8.398;2024-03-02T13:56:49;19.80;91.10
8593;DHT22;4334;49.982;8.398;2024-03-02T13:59:17;19.90;90.60
8593;DHT22;4334;49.982;8.398;2024-03-02T14:01:44;19.20;91.80
8593;DHT22;4334;49.982;8.398;2024-03-02T14:04:11;19.10;91.70
8593;DHT22;4334;49.982;8.398;2024-03-02T14:06:38;18.90;91.60
8593;DHT22;4334;49.982;8.398;2024-03-02T14:09:04;19.00;91.70
8593;DHT22;4334;49.982;8.398;2024-03-02T14:11:31;18.50;92.30
8593;DHT22;4334;49.982;8.398;2024-03-02T14:13:58;18.30;92.90
8593;DHT22;4334;49.982;8.398;2024-03-02T14:16:26;19.00;91.70
8593;DHT22;4334;49.982;8.398;2024-03-02T14:18:52;19.60;91.00
8593;DHT22;4334;49.982;8.398;2024-03-02T14:21:19;18.40;91.30
8593;DHT22;4334;49.982;8.398;2024-03-02T14:23:46;19.10;92.40
8593;DHT22;4334;49.982;8.398;2024-03-02T14:26:12;18.10;92.00
8593;DHT22;4334;49.982;8.398;2024-03-02T14:28:39;17.80;92.30
8593;DHT22;4334;49.982;8.398;2024-03-02T14:31:06;22.10;93.60
8593;DHT22;4334;49.982;8.398;2024-03-02T14:33:34;18.20;92.10
8593;DHT22;4334;49.982;8.398;2024-03-02T14:36:01;18.50;92.20
8593;DHT22;4334;49.982;8.398;2024-03-02T14:38:28;18.90;91.50
8593;DHT22;4334;49.982;8.398;2024-03-02T14:40:54;18.90;91.30
8593;DHT22;4334;49.982;8.398;2024-03-02T14:43:21;18.60;90.80
8593;DHT22;4334;49.982;8.398;2024-03-02T14:45:48;17.30;92.20
8593;DHT22;4334;49.982;8.398;2024-03-02T14:48:15;17.50;92.40
8593;DHT22;4334;49.982;8.398;2024-03-02T14:50:43;17.40;92.40
8593;DHT22;4334;49.982;8.398;2024-03-02T14:53:10;17.10;93.40
8593;DHT22;4334;49.982;8.398;2024-03-02T14:55:37;17.60;92.90
8593;DHT22;4334;49.982;8.398;2024-03-02T14:58:04;17.40;93.10
8593;DHT22;4334;49.982;8.398;2024-03-02T15:00:31;17.50;93.20
8593;DHT22;4334;49.982;8.398;2024-03-02T15:02:57;17.90;93.10
8593;DHT22;4334;49.982;8.398;2024-03-02T15:05:24;18.10;92.50
8593;DHT22;4334;49.982;8.398;2024-03-02T15:07:53;17.40;92.90
8593;DHT22;4334;49.982;8.398;2024-03-02T15:10:20;17.20;93.30
8593;DHT22;4334;49.982;8.398;2024-03-02T15:12:47;16.90;93.40
8593;DHT22;4334;49.982;8.398;2024-03-02T15:15:14;16.60;94.60
8593;DHT22;4334;49.982;8.398;2024-03-02T15:17:40;16.30;94.80
8593;DHT22;4334;49.982;8.398;2024-03-02T15:20:08;16.50;95.30
8593;DHT22;4334;49.982;8.398;2024-03-02T15:22:35;16.80;95.10
8593;DHT22;4334;49.982;8.398;2024-03-02T15:25:04;16.80;94.40
8593;DHT22;4334;49.982;8.398;2024-03-02T15:27:30;16.70;95.20
8593;DHT22;4334;49.982;8.398;2024-03-02T15:29:57;17.00;94.90
8593;DHT22;4334;49.982;8.398;2024-03-02T15:32:24;17.30;94.90
8593;DHT22;4334;49.982;8.398;2024-03-02T15:34:52;16.60;94.70
8593;DHT22;4334;49.982;8.398;2024-03-02T15:37:18;16.10;95.60
8593;DHT22;4334;49.982;8.398;2024-03-02T15:39:45;15.80;96.20
8593;DHT22;4334;49.982;8.398;2024-03-02T15:42:13;15.60;96.70
8593;DHT22;4334;49.982;8.398;2024-03-02T15:44:39;15.30;97.60
8593;DHT22;4334;49.982;8.398;2024-03-02T15:47:06;14.90;98.90
8593;DHT22;4334;49.982;8.398;2024-03-02T15:49:33;14.80;99.30
8593;DHT22;4334;49.982;8.398;2024-03-02T15:52:00;14.60;99.90
8593;DHT22;4334;49.982;8.398;2024-03-02T15:54:27;14.40;99.90
8593;DHT22;4334;49.982;8.398;2024-03-02T15:56:53;14.10;99.90
8593;DHT22;4334;49.982;8.398;2024-03-02T15:59:21;15.90;99.90
8593;DHT22;4334;49.982;8.398;2024-03-02T16:01:48;13.90;99.90
8593;DHT22;4334;49.982;8.398;2024-03-02T16:04:15;13.80;99.90
8593;DHT22;4334;49.982;8.398;2024-03-02T16:06:42;16.30;99.90
8593;DHT22;4334;49.982;8.398;2024-03-02T16:09:08;13.50;99.90
8593;DHT22;4334;49.982;8.398;2024-03-02T16:11:36;13.40;99.90
8593;DHT22;4334;49.982;8.398;2024-03-02T16:14:03;13.20;99.90